createdAt,value
2019-05-18T00:00:18.314Z,94.6441
2019-05-18T00:01:21.273Z,94.5327
2019-05-18T00:02:24.364Z,94.4015
2019-05-18T00:03:27.296Z,94.6212
2019-05-18T00:04:30.372Z,94.6105
2019-05-18T00:05:33.257Z,94.9172
2019-05-18T00:06:36.330Z,94.9783
2019-05-18T00:07:39.308Z,94.9081
2019-05-18T00:08:41.361Z,94.4793
2019-05-18T00:09:44.295Z,93.4661
2019-05-18T00:10:47.287Z,93.3761
2019-05-18T00:11:50.334Z,93.3898
2019-05-18T00:12:53.332Z,92.9809
2019-05-18T00:13:56.296Z,92.9717
2019-05-18T00:14:59.269Z,92.5200
2019-05-18T00:16:02.353Z,92.3094
2019-05-18T00:17:07.482Z,92.2621
2019-05-18T00:18:12.311Z,92.3308
2019-05-18T00:19:15.287Z,91.9463
2019-05-18T00:20:18.272Z,92.1309
2019-05-18T00:21:21.342Z,92.0562
2019-05-18T00:22:24.355Z,91.9554
2019-05-18T00:23:27.290Z,91.7510
2019-05-18T00:24:30.289Z,91.7998
2019-05-18T00:25:33.313Z,91.1727
2019-05-18T00:26:36.267Z,90.8812
2019-05-18T00:27:39.344Z,90.8446
2019-05-18T00:28:42.302Z,90.6920
2019-05-18T00:29:47.293Z,90.9667
2019-05-18T00:30:50.324Z,90.2129
2019-05-18T00:31:53.285Z,89.8283
2019-05-18T00:32:56.344Z,89.5903
2019-05-18T00:33:59.294Z,90.1350
2019-05-18T00:35:02.311Z,89.9458
2019-05-18T00:36:05.291Z,90.1671
2019-05-18T00:37:08.382Z,90.3441
2019-05-18T00:38:11.292Z,90.6935
2019-05-18T00:39:14.268Z,91.0079
2019-05-18T00:40:17.292Z,91.0368
2019-05-18T00:41:20.283Z,91.5038
2019-05-18T00:42:22.341Z,91.1559
2019-05-18T00:43:25.264Z,90.7073
2019-05-18T00:44:28.329Z,90.8217
2019-05-18T00:45:31.292Z,90.3365
2019-05-18T00:46:34.339Z,90.2815
2019-05-18T00:47:41.216Z,90.0481
2019-05-18T00:48:45.336Z,90.4555
2019-05-18T00:49:48.347Z,90.2388
2019-05-18T00:50:51.280Z,89.8466
2019-05-18T00:51:54.306Z,89.5705
2019-05-18T00:52:57.318Z,89.6117
2019-05-18T00:54:00.350Z,89.8634
2019-05-18T00:55:03.323Z,89.6483
2019-05-18T00:56:06.362Z,89.7169
2019-05-18T00:57:09.303Z,89.8451
2019-05-18T00:58:12.351Z,89.6437
2019-05-18T00:59:16.224Z,89.8512
2019-05-18T01:00:19.294Z,89.9001
2019-05-18T01:01:22.313Z,89.7688
2019-05-18T01:02:25.315Z,90.2129
2019-05-18T01:03:28.323Z,89.5750
2019-05-18T01:04:31.301Z,89.7444
2019-05-18T01:05:37.717Z,89.8741
2019-05-18T01:06:41.287Z,89.9184
2019-05-18T01:07:44.269Z,90.0328
2019-05-18T01:08:47.345Z,90.3502
2019-05-18T01:09:50.353Z,90.1991
2019-05-18T01:10:53.297Z,90.3593
2019-05-18T01:11:56.296Z,90.3670
2019-05-18T01:12:59.300Z,90.6096
2019-05-18T01:14:02.346Z,90.8446
2019-05-18T01:15:05.278Z,90.6233
2019-05-18T01:16:08.264Z,90.7103
2019-05-18T01:17:11.287Z,91.0918
2019-05-18T01:18:14.279Z,90.6920
2019-05-18T01:19:17.330Z,90.8110
2019-05-18T01:20:20.315Z,90.7103
2019-05-18T01:21:23.277Z,91.0536
2019-05-18T01:22:26.301Z,90.9865
2019-05-18T01:23:29.303Z,90.6706
2019-05-18T01:24:32.331Z,90.6661
2019-05-18T01:25:35.299Z,90.7347
2019-05-18T01:26:38.310Z,90.4738
2019-05-18T01:27:41.281Z,90.4738
2019-05-18T01:28:44.325Z,90.3441
2019-05-18T01:29:47.343Z,90.6645
2019-05-18T01:30:50.331Z,90.3120
2019-05-18T01:31:53.296Z,90.3181
2019-05-18T01:32:56.303Z,90.7668
2019-05-18T01:33:59.291Z,91.2978
2019-05-18T01:35:02.361Z,91.3344
2019-05-18T01:36:05.284Z,91.3481
2019-05-18T01:37:08.297Z,91.1833
2019-05-18T01:38:11.299Z,91.2459
2019-05-18T01:39:14.317Z,91.1635
2019-05-18T01:40:17.333Z,91.0216
2019-05-18T01:41:20.318Z,90.6340
2019-05-18T01:42:23.288Z,90.4356
2019-05-18T01:43:26.307Z,90.1350
2019-05-18T01:44:29.298Z,90.2129
2019-05-18T01:45:32.302Z,90.5791
2019-05-18T01:46:35.326Z,90.5379
2019-05-18T01:47:38.301Z,90.4875
2019-05-18T01:48:40.345Z,90.7576
2019-05-18T01:49:43.393Z,91.2245
2019-05-18T01:50:46.290Z,91.2612
2019-05-18T01:51:49.302Z,91.2871
2019-05-18T01:52:52.311Z,90.7485
2019-05-18T01:53:55.291Z,91.1101
2019-05-18T01:54:58.310Z,91.1177
2019-05-18T01:56:01.321Z,91.2825
2019-05-18T01:57:04.284Z,91.2139
2019-05-18T01:58:07.346Z,90.6554
2019-05-18T01:59:10.317Z,90.5013
2019-05-18T02:00:13.315Z,90.4860
2019-05-18T02:01:16.312Z,90.7469
2019-05-18T02:02:19.296Z,91.0231
2019-05-18T02:03:24.316Z,91.3832
2019-05-18T02:04:29.264Z,91.2612
2019-05-18T02:05:32.358Z,91.3558
2019-05-18T02:06:35.270Z,91.4763
2019-05-18T02:07:38.281Z,91.6121
2019-05-18T02:08:41.291Z,91.6487
2019-05-18T02:09:44.302Z,91.9158
2019-05-18T02:10:47.322Z,91.7510
2019-05-18T02:11:50.287Z,91.8547
2019-05-18T02:12:53.291Z,91.8135
2019-05-18T02:13:56.265Z,91.6182
2019-05-18T02:14:59.278Z,91.8196
2019-05-18T02:16:01.353Z,91.6915
2019-05-18T02:17:04.268Z,91.7693
2019-05-18T02:18:07.284Z,91.0414
2019-05-18T02:19:09.290Z,91.4565
2019-05-18T02:20:12.307Z,91.6869
2019-05-18T02:21:15.306Z,91.9890
2019-05-18T02:22:17.310Z,92.3445
2019-05-18T02:23:20.251Z,92.6894
2019-05-18T02:24:23.274Z,92.2133
2019-05-18T02:25:26.288Z,92.4926
2019-05-18T02:26:29.300Z,92.6574
2019-05-18T02:27:32.329Z,92.8481
2019-05-18T02:28:35.282Z,92.8588
2019-05-18T02:29:38.322Z,92.8267
2019-05-18T02:30:41.289Z,92.9137
2019-05-18T02:31:44.350Z,93.0816
2019-05-18T02:32:47.290Z,92.5139
2019-05-18T02:33:50.291Z,92.5048
2019-05-18T02:34:53.323Z,92.1889
2019-05-18T02:35:56.293Z,92.5872
2019-05-18T02:36:59.345Z,92.2911
2019-05-18T02:38:02.288Z,92.1935
2019-05-18T02:39:05.332Z,92.0073
2019-05-18T02:40:08.286Z,91.7769
2019-05-18T02:41:11.278Z,91.6808
2019-05-18T02:42:14.345Z,91.4672
2019-05-18T02:43:17.320Z,91.3924
2019-05-18T02:44:20.321Z,91.0185
2019-05-18T02:45:25.281Z,90.9621
2019-05-18T02:46:28.324Z,91.0399
2019-05-18T02:47:31.310Z,91.1238
2019-05-18T02:48:48.512Z,91.0323
2019-05-18T02:49:42.297Z,90.8034
2019-05-18T02:50:45.293Z,91.0872
2019-05-18T02:51:48.303Z,91.3741
2019-05-18T02:52:51.317Z,91.0628
2019-05-18T02:53:54.318Z,91.0643
2019-05-18T02:54:57.259Z,91.1467
2019-05-18T02:56:00.310Z,91.8059
2019-05-18T02:57:03.308Z,92.4453
2019-05-18T02:58:06.302Z,92.4697
2019-05-18T02:59:09.289Z,92.9000
2019-05-18T03:00:12.310Z,92.9763
2019-05-18T03:01:14.281Z,93.2204
2019-05-18T03:02:17.327Z,93.7041
2019-05-18T03:03:20.317Z,93.9071
2019-05-18T03:04:23.282Z,93.9437
2019-05-18T03:05:27.295Z,94.1848
2019-05-18T03:06:30.321Z,93.6584
2019-05-18T03:07:33.364Z,93.6584
2019-05-18T03:08:35.322Z,94.0291
2019-05-18T03:09:38.291Z,94.3694
2019-05-18T03:10:41.313Z,94.3771
2019-05-18T03:11:44.322Z,94.3999
2019-05-18T03:12:47.312Z,94.2168
2019-05-18T03:13:50.275Z,94.4274
2019-05-18T03:14:53.284Z,94.5480
2019-05-18T03:15:56.297Z,94.8440
2019-05-18T03:16:59.341Z,94.9828
2019-05-18T03:18:02.299Z,95.1110
2019-05-18T03:19:08.741Z,95.1919
2019-05-18T03:20:12.310Z,95.1370
2019-05-18T03:21:15.309Z,95.1598
2019-05-18T03:22:18.347Z,95.3292
2019-05-18T03:23:21.350Z,95.3429
2019-05-18T03:24:26.333Z,95.3429
2019-05-18T03:25:29.298Z,95.5261
2019-05-18T03:26:32.320Z,95.5261
2019-05-18T03:27:35.337Z,95.5550
2019-05-18T03:28:38.362Z,95.4589
2019-05-18T03:29:41.282Z,95.4177
2019-05-18T03:30:44.324Z,95.5001
2019-05-18T03:31:47.343Z,95.5596
2019-05-18T03:32:50.300Z,95.7687
2019-05-18T03:33:53.268Z,95.9350
2019-05-18T03:34:58.339Z,95.8877
2019-05-18T03:36:01.353Z,95.9518
2019-05-18T03:37:04.296Z,95.8389
2019-05-18T03:38:07.313Z,95.8663
2019-05-18T03:39:10.304Z,95.9930
2019-05-18T03:40:13.318Z,96.1486
2019-05-18T03:41:16.297Z,96.2921
2019-05-18T03:42:19.345Z,96.3729
2019-05-18T03:43:22.311Z,96.5148
2019-05-18T03:44:25.293Z,96.5789
2019-05-18T03:45:28.301Z,96.5789
2019-05-18T03:46:31.284Z,96.5835
2019-05-18T03:47:34.335Z,96.6674
2019-05-18T03:48:37.317Z,96.7132
2019-05-18T03:49:40.318Z,96.6842
2019-05-18T03:50:43.303Z,96.6445
2019-05-18T03:51:46.278Z,96.5576
2019-05-18T03:52:49.308Z,96.3333
2019-05-18T03:53:52.317Z,96.3973
2019-05-18T03:54:55.279Z,96.3867
2019-05-18T03:55:58.325Z,96.2188
2019-05-18T03:57:01.279Z,95.9060
2019-05-18T03:58:04.355Z,96.0998
2019-05-18T03:59:07.277Z,96.0906
2019-05-18T04:00:10.321Z,96.1273
2019-05-18T04:01:13.292Z,96.0983
2019-05-18T04:02:16.267Z,96.0861
2019-05-18T04:03:19.340Z,96.1212
2019-05-18T04:04:22.262Z,95.9197
2019-05-18T04:05:25.321Z,95.7183
2019-05-18T04:06:27.298Z,95.7641
2019-05-18T04:07:30.270Z,95.7702
2019-05-18T04:08:33.344Z,95.8434
2019-05-18T04:09:36.281Z,95.8434
2019-05-18T04:10:39.325Z,95.8190
2019-05-18T04:11:42.325Z,95.8526
2019-05-18T04:12:45.307Z,95.7549
2019-05-18T04:13:48.312Z,95.7198
2019-05-18T04:14:51.297Z,95.7549
2019-05-18T04:15:54.290Z,96.0494
2019-05-18T04:16:57.257Z,95.9518
2019-05-18T04:18:00.303Z,95.7778
2019-05-18T04:19:03.320Z,95.7931
2019-05-18T04:20:06.318Z,95.8144
2019-05-18T04:21:09.272Z,95.8617
2019-05-18T04:22:12.313Z,95.8205
2019-05-18T04:23:14.309Z,95.9106
2019-05-18T04:24:17.301Z,96.0082
2019-05-18T04:25:20.280Z,96.1028
2019-05-18T04:26:23.264Z,96.0998
2019-05-18T04:27:25.377Z,96.1532
2019-05-18T04:28:28.310Z,96.1028
2019-05-18T04:29:30.318Z,95.7794
2019-05-18T04:30:33.286Z,95.7549
2019-05-18T04:31:36.312Z,95.3567
2019-05-18T04:32:39.286Z,95.0469
2019-05-18T04:33:42.349Z,95.1370
2019-05-18T04:34:45.299Z,95.2056
2019-05-18T04:35:49.377Z,95.4345
2019-05-18T04:36:52.333Z,95.5123
2019-05-18T04:37:55.287Z,95.4910
2019-05-18T04:38:58.359Z,95.4162
2019-05-18T04:40:01.301Z,95.0546
2019-05-18T04:41:04.324Z,94.8501
2019-05-18T04:42:07.300Z,94.7906
2019-05-18T04:43:10.303Z,94.8806
2019-05-18T04:44:13.294Z,95.1614
2019-05-18T04:45:15.326Z,95.5596
2019-05-18T04:46:17.466Z,95.5779
2019-05-18T04:47:20.286Z,95.4986
2019-05-18T04:48:23.338Z,95.0317
2019-05-18T04:49:26.285Z,94.8577
2019-05-18T04:50:28.272Z,94.8531
2019-05-18T04:51:31.288Z,94.7265
2019-05-18T04:52:34.291Z,93.9376
2019-05-18T04:53:37.315Z,93.8476
2019-05-18T04:54:40.281Z,93.3791
2019-05-18T04:55:43.322Z,93.2067
2019-05-18T04:56:46.290Z,93.2296
2019-05-18T04:57:49.320Z,92.9351
2019-05-18T04:58:52.339Z,92.7260
2019-05-18T04:59:55.294Z,93.0449
2019-05-18T05:00:58.308Z,93.8384
2019-05-18T05:02:01.335Z,94.1360
2019-05-18T05:03:04.286Z,94.1848
2019-05-18T05:04:07.301Z,94.4869
2019-05-18T05:05:10.332Z,94.4411
2019-05-18T05:06:13.281Z,94.5418
2019-05-18T05:07:16.315Z,94.7997
2019-05-18T05:08:19.280Z,94.4137
2019-05-18T05:09:22.363Z,94.3282
2019-05-18T05:10:25.284Z,94.2946
2019-05-18T05:11:28.278Z,94.6029
2019-05-18T05:12:31.283Z,94.6075
2019-05-18T05:13:34.288Z,94.7524
2019-05-18T05:14:36.315Z,94.4564
2019-05-18T05:15:39.278Z,94.3236
2019-05-18T05:16:42.313Z,94.4427
2019-05-18T05:17:45.275Z,94.3648
2019-05-18T05:18:48.342Z,94.2779
2019-05-18T05:19:51.281Z,94.6151
2019-05-18T05:20:54.308Z,94.8898
2019-05-18T05:21:57.294Z,94.8348
2019-05-18T05:23:00.294Z,94.9142
2019-05-18T05:24:03.355Z,94.7387
2019-05-18T05:25:06.298Z,94.4961
2019-05-18T05:26:09.310Z,95.3674
2019-05-18T05:27:12.293Z,95.6588
2019-05-18T05:28:15.291Z,95.7458
2019-05-18T05:29:18.319Z,95.6283
2019-05-18T05:30:21.308Z,95.6329
2019-05-18T05:31:24.290Z,95.0683
2019-05-18T05:32:27.275Z,94.7204
2019-05-18T05:33:30.302Z,94.5602
2019-05-18T05:34:33.300Z,93.8918
2019-05-18T05:35:37.861Z,93.5729
2019-05-18T05:36:41.262Z,93.7087
2019-05-18T05:37:44.346Z,93.5729
2019-05-18T05:38:47.312Z,93.4844
2019-05-18T05:39:50.323Z,93.3471
2019-05-18T05:40:53.295Z,93.3150
2019-05-18T05:41:56.291Z,93.1105
2019-05-18T05:42:59.306Z,93.0266
2019-05-18T05:44:02.312Z,92.9046
2019-05-18T05:45:05.288Z,93.0190
2019-05-18T05:46:08.271Z,92.6116
2019-05-18T05:47:11.316Z,92.4010
2019-05-18T05:48:14.276Z,92.0470
2019-05-18T05:49:17.335Z,91.6259
2019-05-18T05:50:34.467Z,91.5633
2019-05-18T05:51:28.313Z,92.6345
2019-05-18T05:52:31.318Z,92.9870
2019-05-18T05:53:34.278Z,93.1823
2019-05-18T05:54:37.343Z,92.9305
2019-05-18T05:55:40.291Z,92.1996
2019-05-18T05:56:43.302Z,91.9982
2019-05-18T05:57:46.260Z,91.4473
2019-05-18T05:58:49.293Z,90.6706
2019-05-18T05:59:52.333Z,90.6416
2019-05-18T06:00:55.279Z,90.2220
2019-05-18T06:01:58.318Z,90.3395
2019-05-18T06:03:01.324Z,90.2266
2019-05-18T06:04:04.324Z,90.1701
2019-05-18T06:05:07.330Z,89.6864
2019-05-18T06:06:10.327Z,89.3736
2019-05-18T06:07:13.279Z,88.6183
2019-05-18T06:08:16.325Z,87.8279
2019-05-18T06:09:19.293Z,86.7826
2019-05-18T06:10:22.320Z,86.3844
2019-05-18T06:11:25.302Z,86.1921
2019-05-18T06:12:28.283Z,84.5441
2019-05-18T06:13:31.322Z,83.8941
2019-05-18T06:14:34.272Z,83.7308
2019-05-18T06:15:37.341Z,82.5589
2019-05-18T06:16:40.331Z,81.6785
2019-05-18T06:17:43.352Z,81.1261
2019-05-18T06:18:46.297Z,81.4176
2019-05-18T06:19:49.282Z,81.3168
2019-05-18T06:20:52.379Z,82.3209
2019-05-18T06:21:54.300Z,82.8046
2019-05-18T06:22:57.317Z,82.0218
2019-05-18T06:24:00.280Z,80.9842
2019-05-18T06:25:04.987Z,81.6297
2019-05-18T06:26:08.317Z,82.4903
2019-05-18T06:27:11.327Z,82.7909
2019-05-18T06:28:14.267Z,81.8891
2019-05-18T06:29:17.284Z,81.3184
2019-05-18T06:30:20.361Z,81.1246
2019-05-18T06:31:23.381Z,80.3464
2019-05-18T06:32:26.307Z,80.5493
2019-05-18T06:33:29.268Z,80.6256
2019-05-18T06:34:32.331Z,80.3235
2019-05-18T06:35:35.312Z,81.6388
2019-05-18T06:36:38.302Z,81.7121
2019-05-18T06:37:41.292Z,81.8387
2019-05-18T06:38:44.273Z,81.9715
2019-05-18T06:39:47.339Z,81.9303
2019-05-18T06:40:50.320Z,81.4923
2019-05-18T06:41:53.309Z,81.2772
2019-05-18T06:42:56.292Z,81.4328
2019-05-18T06:43:59.308Z,81.4145
2019-05-18T06:45:02.294Z,81.1536
2019-05-18T06:46:05.341Z,81.4038
2019-05-18T06:47:08.335Z,81.8753
2019-05-18T06:48:11.286Z,81.3687
2019-05-18T06:49:14.305Z,80.7584
2019-05-18T06:50:17.284Z,81.3321
2019-05-18T06:51:20.334Z,80.5203
2019-05-18T06:52:23.317Z,80.7645
2019-05-18T06:53:26.298Z,79.9680
2019-05-18T06:54:29.285Z,80.3250
2019-05-18T06:55:32.330Z,80.5356
2019-05-18T06:56:35.326Z,81.4557
2019-05-18T06:57:38.293Z,80.5035
2019-05-18T06:58:41.357Z,80.0000
2019-05-18T06:59:44.293Z,80.3967
2019-05-18T07:00:46.359Z,80.0824
2019-05-18T07:01:49.362Z,79.5514
2019-05-18T07:02:52.346Z,78.8739
2019-05-18T07:03:55.287Z,78.7640
2019-05-18T07:04:58.314Z,78.2589
2019-05-18T07:06:01.338Z,78.1369
2019-05-18T07:07:04.302Z,78.2773
2019-05-18T07:08:06.305Z,77.4640
2019-05-18T07:09:13.730Z,77.4762
2019-05-18T07:10:16.320Z,76.9696
2019-05-18T07:11:19.350Z,76.2966
2019-05-18T07:12:22.317Z,77.2244
2019-05-18T07:13:25.346Z,77.7066
2019-05-18T07:14:28.334Z,78.0621
2019-05-18T07:15:31.291Z,78.9364
2019-05-18T07:16:34.323Z,78.3749
2019-05-18T07:17:37.311Z,78.6496
2019-05-18T07:18:40.283Z,78.0682
2019-05-18T07:19:43.294Z,77.9950
2019-05-18T07:20:46.336Z,78.3017
2019-05-18T07:21:49.303Z,78.5534
2019-05-18T07:22:52.313Z,78.8281
2019-05-18T07:23:55.310Z,77.5631
2019-05-18T07:24:58.295Z,78.3291
2019-05-18T07:26:01.330Z,77.9751
2019-05-18T07:27:04.301Z,77.4685
2019-05-18T07:28:06.285Z,78.0392
2019-05-18T07:29:09.323Z,78.5794
2019-05-18T07:30:12.306Z,78.5657
2019-05-18T07:31:15.361Z,77.8393
2019-05-18T07:32:18.314Z,77.0062
2019-05-18T07:33:21.312Z,75.9487
2019-05-18T07:34:26.515Z,76.2631
2019-05-18T07:35:30.314Z,75.6039
2019-05-18T07:36:33.297Z,75.5825
2019-05-18T07:37:36.325Z,74.9660
2019-05-18T07:38:39.390Z,75.4345
2019-05-18T07:39:42.328Z,76.1273
2019-05-18T07:40:45.261Z,74.9752
2019-05-18T07:41:48.357Z,75.0240
2019-05-18T07:42:51.315Z,74.9584
2019-05-18T07:43:54.298Z,75.3750
2019-05-18T07:44:57.301Z,75.1980
2019-05-18T07:46:00.327Z,73.6202
2019-05-18T07:47:03.348Z,74.0688
2019-05-18T07:48:06.289Z,74.6136
2019-05-18T07:49:09.289Z,74.9157
2019-05-18T07:50:12.322Z,74.4305
2019-05-18T07:51:15.328Z,74.2336
2019-05-18T07:52:18.382Z,72.5414
2019-05-18T07:53:21.311Z,73.4554
2019-05-18T07:54:24.283Z,73.3196
2019-05-18T07:55:27.353Z,72.9244
2019-05-18T07:56:30.322Z,72.9564
2019-05-18T07:57:33.313Z,73.1594
2019-05-18T07:58:36.270Z,73.0678
2019-05-18T07:59:39.295Z,72.3842
2019-05-18T08:00:42.301Z,72.8008
2019-05-18T08:01:45.344Z,72.5368
2019-05-18T08:02:48.319Z,72.8374
2019-05-18T08:03:51.306Z,72.2927
2019-05-18T08:04:54.285Z,73.0571
2019-05-18T08:05:57.369Z,73.5470
2019-05-18T08:07:00.287Z,73.4340
2019-05-18T08:08:03.323Z,74.5083
2019-05-18T08:09:06.321Z,74.6502
2019-05-18T08:10:09.329Z,73.7804
2019-05-18T08:11:12.342Z,73.4600
2019-05-18T08:12:15.309Z,72.8466
2019-05-18T08:13:18.386Z,71.2917
2019-05-18T08:14:21.288Z,73.0434
2019-05-18T08:15:24.329Z,71.7449
2019-05-18T08:16:27.325Z,72.5856
2019-05-18T08:17:30.320Z,72.8145
2019-05-18T08:18:33.361Z,72.7474
2019-05-18T08:19:36.316Z,72.1370
2019-05-18T08:20:39.324Z,71.0811
2019-05-18T08:21:52.747Z,71.1406
2019-05-18T08:22:50.336Z,71.4931
2019-05-18T08:23:53.299Z,71.8273
2019-05-18T08:24:56.332Z,70.4814
2019-05-18T08:25:59.322Z,70.5913
2019-05-18T08:27:02.612Z,70.1549
2019-05-18T08:28:05.358Z,69.7673
2019-05-18T08:29:08.311Z,70.8064
2019-05-18T08:30:11.297Z,71.7220
2019-05-18T08:31:14.325Z,71.2489
2019-05-18T08:32:17.329Z,70.4631
2019-05-18T08:33:20.344Z,70.2617
2019-05-18T08:34:23.304Z,70.7607
2019-05-18T08:35:27.286Z,68.5451
2019-05-18T08:36:30.299Z,68.5130
2019-05-18T08:37:33.368Z,67.1336
2019-05-18T08:38:36.361Z,67.7470
2019-05-18T08:39:39.322Z,68.1636
2019-05-18T08:40:42.289Z,68.9372
2019-05-18T08:41:48.620Z,68.4337
2019-05-18T08:42:52.288Z,69.6208
2019-05-18T08:43:55.364Z,69.7169
2019-05-18T08:44:58.286Z,70.2373
2019-05-18T08:46:01.324Z,71.0079
2019-05-18T08:47:04.308Z,70.8415
2019-05-18T08:48:07.434Z,70.7408
2019-05-18T08:49:10.291Z,70.6676
2019-05-18T08:50:13.319Z,70.7698
2019-05-18T08:51:16.330Z,70.1335
2019-05-18T08:52:19.353Z,69.9321
2019-05-18T08:53:22.363Z,70.5684
2019-05-18T08:54:25.307Z,70.7088
2019-05-18T08:55:28.279Z,71.4549
2019-05-18T08:56:31.343Z,70.4952
2019-05-18T08:57:34.347Z,69.6834
2019-05-18T08:58:37.364Z,68.8136
2019-05-18T08:59:40.329Z,68.6091
2019-05-18T09:00:43.307Z,70.2281
2019-05-18T09:01:46.330Z,67.3716
2019-05-18T09:02:48.313Z,67.4968
2019-05-18T09:03:50.432Z,69.2119
2019-05-18T09:04:53.317Z,69.9443
2019-05-18T09:05:56.311Z,71.0750
2019-05-18T09:06:59.337Z,70.7820
2019-05-18T09:08:02.363Z,70.4524
2019-05-18T09:09:05.317Z,70.5028
2019-05-18T09:10:08.283Z,70.8385
2019-05-18T09:11:11.366Z,70.5348
2019-05-18T09:12:14.334Z,69.5827
2019-05-18T09:13:16.335Z,68.5542
2019-05-18T09:14:19.379Z,68.5496
2019-05-18T09:15:24.349Z,68.3238
2019-05-18T09:16:27.338Z,68.1193
2019-05-18T09:17:30.326Z,67.5151
2019-05-18T09:18:33.322Z,66.9825
2019-05-18T09:19:36.371Z,67.3823
2019-05-18T09:20:39.295Z,67.6707
2019-05-18T09:21:42.330Z,67.5151
2019-05-18T09:22:45.299Z,67.6234
2019-05-18T09:23:50.327Z,65.6870
2019-05-18T09:24:53.395Z,63.9216
2019-05-18T09:25:56.320Z,65.0248
2019-05-18T09:26:59.295Z,65.1102
2019-05-18T09:28:02.309Z,65.5741
2019-05-18T09:29:05.392Z,65.1575
2019-05-18T09:30:08.781Z,64.7623
2019-05-18T09:31:12.343Z,63.5401
2019-05-18T09:32:15.311Z,62.6490
2019-05-18T09:33:18.340Z,62.7344
2019-05-18T09:34:21.352Z,63.7156
2019-05-18T09:35:24.316Z,63.1571
2019-05-18T09:36:26.326Z,62.6627
2019-05-18T09:37:29.341Z,63.2670
2019-05-18T09:38:33.326Z,63.9490
2019-05-18T09:39:35.335Z,64.3198
2019-05-18T09:40:38.339Z,66.2043
2019-05-18T09:41:41.327Z,65.9632
2019-05-18T09:42:44.356Z,64.9378
2019-05-18T09:43:46.344Z,64.6113
2019-05-18T09:44:49.337Z,63.6927
2019-05-18T09:45:52.332Z,63.4134
2019-05-18T09:46:55.313Z,63.6790
2019-05-18T09:47:58.311Z,65.5406
2019-05-18T09:49:01.305Z,66.6178
2019-05-18T09:50:04.364Z,65.0156
2019-05-18T09:51:07.275Z,64.1688
2019-05-18T09:52:10.291Z,64.3153
2019-05-18T09:53:13.307Z,63.8575
2019-05-18T09:54:16.320Z,64.2512
2019-05-18T09:55:19.349Z,64.6586
2019-05-18T09:56:22.321Z,64.3549
2019-05-18T09:57:25.332Z,62.7314
2019-05-18T09:58:28.312Z,64.1093
2019-05-18T09:59:30.335Z,64.6952
2019-05-18T10:00:38.378Z,63.7980
2019-05-18T10:01:41.292Z,64.9149
2019-05-18T10:02:44.388Z,66.0212
2019-05-18T10:03:47.313Z,64.6204
2019-05-18T10:04:50.319Z,64.3412
2019-05-18T10:05:53.346Z,64.6662
2019-05-18T10:06:56.322Z,64.4846
2019-05-18T10:07:59.320Z,65.0248
2019-05-18T10:09:02.374Z,65.5329
2019-05-18T10:10:05.307Z,65.0248
2019-05-18T10:11:08.368Z,64.2741
2019-05-18T10:12:11.346Z,64.5533
2019-05-18T10:13:14.302Z,63.7415
2019-05-18T10:14:17.352Z,64.7868
2019-05-18T10:15:20.316Z,63.7552
2019-05-18T10:16:24.429Z,66.0410
2019-05-18T10:17:27.316Z,65.4826
2019-05-18T10:18:30.322Z,64.6159
2019-05-18T10:19:33.285Z,65.5222
2019-05-18T10:20:36.311Z,65.6641
2019-05-18T10:21:39.340Z,65.3712
2019-05-18T10:22:53.815Z,64.4663
2019-05-18T10:23:50.346Z,65.2583
2019-05-18T10:24:53.291Z,64.5655
2019-05-18T10:25:56.364Z,65.5085
2019-05-18T10:26:59.351Z,65.5283
2019-05-18T10:28:02.333Z,65.4093
2019-05-18T10:29:05.294Z,65.1301
2019-05-18T10:30:08.334Z,64.9973
2019-05-18T10:31:11.314Z,62.8046
2019-05-18T10:32:14.298Z,63.8468
2019-05-18T10:33:17.337Z,63.4531
2019-05-18T10:34:20.332Z,63.2074
2019-05-18T10:35:23.375Z,63.5737
2019-05-18T10:36:26.347Z,64.0848
2019-05-18T10:37:29.327Z,64.1993
2019-05-18T10:38:32.306Z,63.3433
2019-05-18T10:39:38.446Z,63.8560
2019-05-18T10:40:41.371Z,65.5039
2019-05-18T10:41:44.322Z,65.9861
2019-05-18T10:42:47.299Z,66.7598
2019-05-18T10:43:50.319Z,65.5924
2019-05-18T10:44:53.353Z,64.7410
2019-05-18T10:45:56.337Z,65.1438
2019-05-18T10:46:59.293Z,65.0248
2019-05-18T10:48:02.382Z,65.5833
2019-05-18T10:49:05.320Z,64.6769
2019-05-18T10:50:08.330Z,63.9384
2019-05-18T10:51:11.363Z,62.7710
2019-05-18T10:52:14.326Z,62.3880
2019-05-18T10:53:28.357Z,62.9831
2019-05-18T10:54:25.328Z,62.0630
2019-05-18T10:55:28.316Z,62.9084
2019-05-18T10:56:31.438Z,64.0864
2019-05-18T10:57:34.298Z,63.3173
2019-05-18T10:58:37.330Z,64.4144
2019-05-18T10:59:40.344Z,64.1138
2019-05-18T11:00:43.314Z,64.1855
2019-05-18T11:01:46.354Z,63.4913
2019-05-18T11:02:49.321Z,62.6886
2019-05-18T11:03:52.352Z,61.9928
2019-05-18T11:04:55.301Z,61.9165
2019-05-18T11:05:58.280Z,60.3174
2019-05-18T11:07:01.346Z,62.8458
2019-05-18T11:08:04.321Z,63.5447
2019-05-18T11:09:07.327Z,62.2354
2019-05-18T11:10:10.307Z,61.2757
2019-05-18T11:11:13.354Z,62.5742
2019-05-18T11:12:16.333Z,63.0823
2019-05-18T11:13:19.322Z,62.4826
2019-05-18T11:14:22.313Z,61.8982
2019-05-18T11:15:25.330Z,61.0925
2019-05-18T11:16:28.305Z,60.0656
2019-05-18T11:17:31.344Z,60.3403
2019-05-18T11:18:34.296Z,60.7492
2019-05-18T11:19:37.352Z,60.1724
2019-05-18T11:20:40.311Z,60.4639
2019-05-18T11:21:43.331Z,61.1185
2019-05-18T11:22:46.361Z,62.4842
2019-05-18T11:23:49.298Z,60.9094
2019-05-18T11:24:52.327Z,62.4247
2019-05-18T11:25:55.330Z,61.6129
2019-05-18T11:26:58.391Z,60.1862
2019-05-18T11:28:01.344Z,61.3291
2019-05-18T11:29:04.338Z,61.1048
2019-05-18T11:30:07.371Z,60.5158
2019-05-18T11:31:10.298Z,60.6195
2019-05-18T11:32:13.370Z,59.7696
2019-05-18T11:33:16.298Z,60.5554
2019-05-18T11:34:19.330Z,61.8433
2019-05-18T11:35:22.300Z,62.9450
2019-05-18T11:36:25.332Z,62.2232
2019-05-18T11:37:27.348Z,62.4643
2019-05-18T11:38:30.324Z,61.8662
2019-05-18T11:39:33.326Z,61.9654
2019-05-18T11:40:36.318Z,61.1704
2019-05-18T11:41:39.328Z,61.6465
2019-05-18T11:42:41.323Z,62.5834
2019-05-18T11:43:44.318Z,62.6657
2019-05-18T11:44:47.330Z,61.7044
2019-05-18T11:45:50.302Z,62.1317
2019-05-18T11:46:53.314Z,62.6307
2019-05-18T11:47:56.361Z,62.4109
2019-05-18T11:48:59.272Z,62.3606
2019-05-18T11:50:02.329Z,61.7700
2019-05-18T11:51:05.356Z,62.2492
2019-05-18T11:52:08.310Z,62.4918
2019-05-18T11:53:11.359Z,62.0340
2019-05-18T11:54:14.284Z,61.3565
2019-05-18T11:55:17.300Z,59.6689
2019-05-18T11:56:20.304Z,60.2716
2019-05-18T11:57:23.316Z,60.4700
2019-05-18T11:58:26.323Z,60.5295
2019-05-18T11:59:29.349Z,60.7584
2019-05-18T12:00:32.299Z,61.4679
2019-05-18T12:01:34.328Z,61.5091
2019-05-18T12:02:37.320Z,61.8326
2019-05-18T12:03:40.318Z,61.3153
2019-05-18T12:04:44.327Z,61.1185
2019-05-18T12:05:47.318Z,61.5732
2019-05-18T12:06:50.324Z,60.2914
2019-05-18T12:07:53.307Z,60.5417
2019-05-18T12:08:58.599Z,60.5325
2019-05-18T12:10:02.358Z,60.1755
2019-05-18T12:11:04.336Z,59.9802
2019-05-18T12:12:07.337Z,59.7360
2019-05-18T12:13:10.285Z,59.7833
2019-05-18T12:14:13.376Z,60.4654
2019-05-18T12:15:16.306Z,60.4501
2019-05-18T12:16:19.331Z,60.8255
2019-05-18T12:17:22.265Z,60.7569
2019-05-18T12:18:25.278Z,60.4517
2019-05-18T12:19:28.376Z,59.9252
2019-05-18T12:20:32.314Z,60.5295
2019-05-18T12:21:35.326Z,60.4471
2019-05-18T12:22:38.297Z,60.1297
2019-05-18T12:23:41.338Z,60.5600
2019-05-18T12:24:44.311Z,61.4633
2019-05-18T12:25:50.280Z,61.7517
2019-05-18T12:26:54.347Z,60.3922
2019-05-18T12:27:57.369Z,59.9695
2019-05-18T12:29:00.315Z,59.8932
2019-05-18T12:30:03.389Z,56.4859
2019-05-18T12:31:05.352Z,57.1054
2019-05-18T12:32:08.270Z,56.6369
2019-05-18T12:33:11.339Z,58.0575
2019-05-18T12:34:14.299Z,58.1125
2019-05-18T12:35:17.392Z,57.3053
2019-05-18T12:36:20.299Z,56.6156
2019-05-18T12:37:23.347Z,55.6985
2019-05-18T12:38:26.302Z,57.7417
2019-05-18T12:39:29.313Z,56.9574
2019-05-18T12:40:32.372Z,56.0250
2019-05-18T12:41:35.296Z,56.2982
2019-05-18T12:42:38.320Z,55.8328